createdAt,value
2022-08-28T00:02:50.065Z,24.84
2022-08-28T00:05:53.851Z,24.79
2022-08-28T00:08:57.777Z,24.73
2022-08-28T00:12:02.502Z,24.62
2022-08-28T00:15:08.267Z,24.56
2022-08-28T00:18:15.103Z,24.59
2022-08-28T00:21:18.366Z,24.52
2022-08-28T00:24:21.934Z,24.52
2022-08-28T00:27:43.809Z,24.59
2022-08-28T00:30:49.785Z,24.52
2022-08-28T00:33:53.653Z,24.46
2022-08-28T00:36:56.827Z,24.38
2022-08-28T00:39:59.955Z,24.32
2022-08-28T00:43:07.446Z,24.32
2022-08-28T00:46:13.087Z,24.29
2022-08-28T00:49:18.935Z,24.33
2022-08-28T00:52:24.310Z,24.52
2022-08-28T00:55:29.694Z,24.50
2022-08-28T00:58:35.046Z,24.53
2022-08-28T01:01:39.330Z,24.72
2022-08-28T01:04:43.109Z,24.75
2022-08-28T01:07:47.198Z,24.78
2022-08-28T01:10:55.467Z,24.85
2022-08-28T01:14:02.381Z,24.79
2022-08-28T01:17:08.411Z,24.70
2022-08-28T01:20:15.422Z,24.65
2022-08-28T01:23:27.970Z,24.67
2022-08-28T01:26:33.286Z,24.66
2022-08-28T01:29:36.634Z,24.71
2022-08-28T01:32:42.072Z,24.61
2022-08-28T01:35:48.349Z,24.47
2022-08-28T01:38:57.296Z,24.40
2022-08-28T01:42:03.878Z,24.36
2022-08-28T01:45:11.330Z,24.41
2022-08-28T01:48:15.473Z,24.48
2022-08-28T01:51:24.389Z,24.57
2022-08-28T01:54:28.879Z,24.58
2022-08-28T01:57:33.666Z,24.47
2022-08-28T02:00:37.114Z,24.32
2022-08-28T02:03:43.306Z,24.39
2022-08-28T02:06:49.087Z,24.29
2022-08-28T02:09:52.791Z,24.29
2022-08-28T02:12:59.256Z,24.38
2022-08-28T02:16:02.759Z,24.40
2022-08-28T02:19:06.241Z,24.36
2022-08-28T02:22:10.470Z,24.26
2022-08-28T02:25:14.138Z,24.11
2022-08-28T02:28:20.108Z,24.09
2022-08-28T02:31:23.277Z,24.07
2022-08-28T02:34:26.546Z,24.10
2022-08-28T02:37:29.998Z,24.13
2022-08-28T02:40:33.499Z,24.05
2022-08-28T02:43:38.358Z,24.06
2022-08-28T02:46:41.536Z,24.05
2022-08-28T02:49:44.715Z,24.11
2022-08-28T02:52:49.320Z,24.15
2022-08-28T02:55:52.607Z,24.18
2022-08-28T02:58:58.467Z,24.28
2022-08-28T03:02:04.082Z,24.38
2022-08-28T03:05:07.626Z,24.31
2022-08-28T03:08:10.810Z,24.30
2022-08-28T03:11:14.038Z,24.25
2022-08-28T03:14:20.750Z,24.29
2022-08-28T03:17:24.422Z,24.31
2022-08-28T03:20:27.999Z,24.41
2022-08-28T03:23:31.923Z,24.50
2022-08-28T03:26:35.329Z,24.57
2022-08-28T03:29:40.238Z,24.52
2022-08-28T03:32:43.619Z,24.39
2022-08-28T03:35:46.792Z,24.27
2022-08-28T03:38:50.742Z,24.16
2022-08-28T03:41:53.866Z,24.30
2022-08-28T03:44:59.638Z,24.43
2022-08-28T03:48:03.912Z,24.44
2022-08-28T03:51:09.069Z,24.50
2022-08-28T03:54:12.172Z,24.49
2022-08-28T03:57:18.927Z,24.28
2022-08-28T04:00:26.164Z,24.26
2022-08-28T04:03:30.493Z,24.29
2022-08-28T04:06:34.223Z,24.24
2022-08-28T04:09:39.461Z,24.18
2022-08-28T04:12:44.529Z,24.19
2022-08-28T04:15:57.434Z,24.29
2022-08-28T04:19:01.812Z,24.35
2022-08-28T04:22:05.115Z,24.35
2022-08-28T04:25:09.292Z,24.39
2022-08-28T04:28:12.580Z,24.49
2022-08-28T04:31:17.966Z,24.47
2022-08-28T04:34:34.131Z,24.39
2022-08-28T04:37:37.714Z,24.45
2022-08-28T04:40:41.541Z,24.42
2022-08-28T04:43:45.710Z,24.50
2022-08-28T04:46:50.208Z,24.47
2022-08-28T04:49:53.489Z,24.40
2022-08-28T04:52:56.681Z,24.24
2022-08-28T04:56:00.779Z,24.20
2022-08-28T04:59:04.267Z,24.36
2022-08-28T05:02:09.459Z,24.51
2022-08-28T05:05:13.000Z,24.58
2022-08-28T05:08:17.891Z,24.47
2022-08-28T05:11:33.179Z,24.52
2022-08-28T05:14:37.834Z,24.47
2022-08-28T05:17:42.845Z,24.41
2022-08-28T05:20:48.675Z,24.38
2022-08-28T05:23:56.563Z,24.23
2022-08-28T05:27:02.231Z,24.03
2022-08-28T05:30:06.297Z,23.99
2022-08-28T05:33:13.388Z,23.99
2022-08-28T05:36:17.913Z,24.15
2022-08-28T05:39:21.179Z,24.17
2022-08-28T05:42:26.860Z,24.28
2022-08-28T05:45:34.618Z,24.30
2022-08-28T05:48:40.976Z,24.29
2022-08-28T05:51:44.573Z,24.46
2022-08-28T05:54:48.870Z,24.50
2022-08-28T05:57:52.235Z,24.73
2022-08-28T06:00:55.415Z,24.67
2022-08-28T06:04:03.248Z,24.75
2022-08-28T06:07:06.891Z,24.87
2022-08-28T06:10:10.948Z,24.93
2022-08-28T06:13:14.092Z,24.83
2022-08-28T06:16:17.433Z,24.78
2022-08-28T06:19:23.682Z,24.85
2022-08-28T06:22:26.835Z,24.91
2022-08-28T06:25:30.095Z,25.12
2022-08-28T06:28:33.483Z,25.23
2022-08-28T06:31:37.311Z,24.79
2022-08-28T06:34:41.997Z,24.84
2022-08-28T06:37:46.091Z,24.94
2022-08-28T06:40:52.937Z,24.99
2022-08-28T06:43:57.768Z,25.19
2022-08-28T06:47:00.889Z,25.32
2022-08-28T06:50:06.127Z,25.32
2022-08-28T06:53:10.208Z,25.09
2022-08-28T06:56:25.709Z,25.06
2022-08-28T06:59:30.349Z,25.32
2022-08-28T07:02:33.474Z,25.36
2022-08-28T07:05:38.288Z,25.44
2022-08-28T07:08:42.159Z,25.51
2022-08-28T07:11:46.649Z,25.62
2022-08-28T07:14:49.916Z,25.71
2022-08-28T07:17:53.059Z,25.67
2022-08-28T07:21:00.578Z,25.80
2022-08-28T07:24:05.471Z,25.76
2022-08-28T07:27:09.125Z,25.62
2022-08-28T07:30:13.373Z,25.59
2022-08-28T07:33:16.736Z,25.65
2022-08-28T07:36:29.769Z,25.71
2022-08-28T07:39:33.251Z,25.98
2022-08-28T07:42:52.779Z,26.00
2022-08-28T07:45:59.759Z,26.06
2022-08-28T07:49:03.819Z,25.96
2022-08-28T07:52:12.373Z,25.86
2022-08-28T07:55:16.332Z,25.97
2022-08-28T07:58:19.613Z,26.12
2022-08-28T08:01:23.245Z,26.38
2022-08-28T08:04:26.887Z,26.32
2022-08-28T08:07:33.032Z,26.03
2022-08-28T08:10:36.733Z,25.85
2022-08-28T08:13:42.005Z,25.78
2022-08-28T08:16:47.595Z,25.81
2022-08-28T08:19:51.426Z,25.98
2022-08-28T08:22:56.638Z,26.14
2022-08-28T08:26:04.140Z,26.24
2022-08-28T08:29:07.928Z,26.54
2022-08-28T08:32:13.840Z,26.62
2022-08-28T08:35:18.281Z,26.68
2022-08-28T08:38:23.793Z,26.67
2022-08-28T08:41:31.027Z,26.79
2022-08-28T08:44:37.414Z,26.90
2022-08-28T08:47:51.665Z,26.62
2022-08-28T08:50:57.494Z,26.40
2022-08-28T08:54:07.825Z,26.34
2022-08-28T08:57:12.826Z,26.31
2022-08-28T09:22:55.504Z,26.38
2022-08-28T09:26:01.806Z,26.72
2022-08-28T09:29:09.111Z,27.05
2022-08-28T09:32:23.661Z,27.17
2022-08-28T09:35:29.200Z,27.07
2022-08-28T09:38:33.693Z,26.91
2022-08-28T09:41:56.919Z,26.75
2022-08-28T09:45:09.499Z,26.68
2022-08-28T09:48:23.838Z,26.64
2022-08-28T09:51:31.478Z,26.61
2022-08-28T09:54:42.019Z,26.65
2022-08-28T09:57:47.651Z,26.66
2022-08-28T10:00:57.108Z,26.64
2022-08-28T10:04:15.524Z,26.74
2022-08-28T10:07:28.795Z,26.82
2022-08-28T10:10:39.921Z,26.90
2022-08-28T10:13:54.819Z,26.92
2022-08-28T10:17:07.488Z,26.94
2022-08-28T10:20:17.971Z,26.83
2022-08-28T10:23:32.809Z,26.79
2022-08-28T10:26:44.509Z,26.79
2022-08-28T10:29:55.012Z,26.78
2022-08-28T10:33:13.143Z,26.77
2022-08-28T10:36:33.520Z,26.81
2022-08-28T10:39:49.125Z,26.85
2022-08-28T10:43:02.131Z,26.85
2022-08-28T10:46:07.176Z,26.84
2022-08-28T10:49:17.603Z,26.78
2022-08-28T10:52:25.850Z,26.78
2022-08-28T10:55:36.658Z,26.75
2022-08-28T10:58:42.015Z,26.73
2022-08-28T11:01:47.401Z,26.75
2022-08-28T11:04:53.277Z,26.75
2022-08-28T11:08:02.100Z,26.74
2022-08-28T11:11:08.503Z,26.72
2022-08-28T11:14:25.178Z,26.74
2022-08-28T11:17:42.586Z,26.72
2022-08-28T11:20:58.100Z,26.73
2022-08-28T11:24:07.186Z,26.77
2022-08-28T11:27:22.041Z,26.82
2022-08-28T11:30:33.518Z,26.79
2022-08-28T11:33:42.025Z,26.85
2022-08-28T11:37:01.300Z,27.05
2022-08-28T11:40:18.407Z,27.14
2022-08-28T11:43:37.888Z,27.16
2022-08-28T11:46:44.827Z,27.26
2022-08-28T11:49:47.970Z,27.22
2022-08-28T11:53:45.485Z,27.09
2022-08-28T11:57:01.401Z,26.99
2022-08-28T12:00:11.560Z,27.05
2022-08-28T12:03:17.899Z,27.10
2022-08-28T12:07:01.975Z,27.11
2022-08-28T12:10:46.485Z,27.03
2022-08-28T12:13:53.007Z,27.06
2022-08-28T12:17:18.612Z,27.03
2022-08-28T12:20:29.536Z,27.10
2022-08-28T12:23:45.677Z,27.17
2022-08-28T12:26:54.257Z,27.07
2022-08-28T12:30:03.347Z,27.09
2022-08-28T12:33:15.878Z,27.21
2022-08-28T12:36:26.610Z,27.10
2022-08-28T12:39:31.748Z,27.03
2022-08-28T12:42:39.348Z,26.99
2022-08-28T12:45:50.797Z,27.02
2022-08-28T12:48:56.237Z,27.01
2022-08-28T12:52:11.573Z,26.97
2022-08-28T12:55:24.367Z,26.96
2022-08-28T12:58:33.012Z,26.97
2022-08-28T13:01:39.056Z,26.98
2022-08-28T13:04:46.833Z,27.00
2022-08-28T13:07:52.614Z,26.98
2022-08-28T13:10:56.233Z,27.00
2022-08-28T13:13:59.462Z,26.99
2022-08-28T13:17:04.600Z,27.01
2022-08-28T13:20:08.962Z,27.25
2022-08-28T13:23:29.863Z,27.40
2022-08-28T13:26:36.470Z,27.20
2022-08-28T13:29:51.647Z,27.16
2022-08-28T13:33:04.676Z,27.23
2022-08-28T13:36:22.117Z,27.16
2022-08-28T13:39:25.570Z,27.09
2022-08-28T13:42:29.136Z,27.09
2022-08-28T13:45:35.643Z,27.10
2022-08-28T13:48:47.216Z,27.25
2022-08-28T13:51:50.864Z,27.12
2022-08-28T13:54:54.493Z,27.08
2022-08-28T13:57:58.513Z,27.09
2022-08-28T14:01:02.372Z,27.07
2022-08-28T14:04:05.988Z,27.08
2022-08-28T14:07:09.823Z,27.23
2022-08-28T14:10:13.183Z,27.52
2022-08-28T14:13:16.392Z,27.39
2022-08-28T14:16:19.660Z,27.58
2022-08-28T14:19:24.289Z,27.64
2022-08-28T14:22:27.886Z,27.61
2022-08-28T14:25:31.732Z,27.42
2022-08-28T14:28:36.881Z,27.31
2022-08-28T14:31:41.199Z,27.32
2022-08-28T14:34:47.699Z,27.32
2022-08-28T14:37:50.840Z,27.41
2022-08-28T14:40:54.819Z,27.40
2022-08-28T14:43:59.384Z,27.48
2022-08-28T14:47:02.514Z,27.62
2022-08-28T14:50:08.044Z,27.62
2022-08-28T14:53:11.907Z,27.68
2022-08-28T14:56:15.532Z,27.70
2022-08-28T14:59:24.225Z,27.70
2022-08-28T15:02:27.682Z,27.77
2022-08-28T15:05:32.174Z,27.41
2022-08-28T15:08:36.848Z,26.53
2022-08-28T15:11:40.464Z,26.04
2022-08-28T15:14:51.392Z,25.80
2022-08-28T15:17:58.704Z,25.67
2022-08-28T15:21:03.747Z,25.60
2022-08-28T15:24:09.746Z,25.55
2022-08-28T15:27:12.854Z,25.44
2022-08-28T15:30:16.964Z,25.31
2022-08-28T15:33:20.080Z,25.18
2022-08-28T15:36:24.646Z,25.03
2022-08-28T15:39:47.118Z,24.90
2022-08-28T15:42:50.267Z,24.84
2022-08-28T15:45:53.409Z,24.83
2022-08-28T15:48:57.122Z,24.96
2022-08-28T15:52:01.982Z,24.87
2022-08-28T15:55:07.534Z,24.67
2022-08-28T15:58:13.842Z,24.67
2022-08-28T16:01:17.706Z,24.82
2022-08-28T16:04:20.952Z,24.96
2022-08-28T16:07:26.114Z,24.90
2022-08-28T16:10:29.642Z,24.99
2022-08-28T16:13:32.854Z,24.97
2022-08-28T16:16:36.195Z,25.05
2022-08-28T16:19:40.238Z,25.05
2022-08-28T16:22:44.730Z,25.02
2022-08-28T16:25:47.895Z,25.00
2022-08-28T16:28:51.232Z,25.03
2022-08-28T16:31:54.367Z,24.94
2022-08-28T16:34:57.602Z,24.80
2022-08-28T16:38:02.681Z,24.87
2022-08-28T16:41:06.433Z,24.92
2022-08-28T16:44:09.487Z,24.83
2022-08-28T16:47:12.670Z,24.89
2022-08-28T16:50:15.918Z,24.92
2022-08-28T16:53:24.346Z,24.90
2022-08-28T16:56:30.271Z,24.84
2022-08-28T16:59:33.862Z,24.97
2022-08-28T17:02:40.614Z,25.11
2022-08-28T17:05:43.914Z,25.13
2022-08-28T17:08:49.915Z,25.12
2022-08-28T17:11:55.714Z,25.03
2022-08-28T17:14:58.883Z,24.97
2022-08-28T17:18:02.014Z,25.04
2022-08-28T17:21:23.507Z,25.08
2022-08-28T17:24:28.205Z,25.01
2022-08-28T17:27:32.178Z,25.07
2022-08-28T17:30:35.346Z,25.49
2022-08-28T17:33:39.740Z,25.76
2022-08-28T17:36:43.421Z,25.96
2022-08-28T17:39:48.399Z,26.09
2022-08-28T17:42:53.721Z,26.18
2022-08-28T17:45:57.055Z,26.25
2022-08-28T17:49:00.623Z,26.30
2022-08-28T17:52:04.670Z,26.35
2022-08-28T17:55:10.379Z,26.39
2022-08-28T17:58:13.976Z,26.39
2022-08-28T18:01:20.255Z,26.44
2022-08-28T18:04:24.811Z,26.47
2022-08-28T18:07:28.211Z,26.41
2022-08-28T18:10:34.508Z,26.39
2022-08-28T18:13:37.970Z,26.39
2022-08-28T18:16:41.213Z,26.39
2022-08-28T18:19:44.820Z,26.42
2022-08-28T18:22:48.635Z,26.42
2022-08-28T18:25:53.114Z,26.47
2022-08-28T18:28:56.301Z,26.49
2022-08-28T18:32:01.831Z,26.58
2022-08-28T18:35:05.460Z,26.61
2022-08-28T18:38:09.302Z,26.64
2022-08-28T18:41:13.818Z,26.67
2022-08-28T18:44:21.176Z,26.67
2022-08-28T18:47:26.887Z,26.70
2022-08-28T18:50:31.889Z,26.72
2022-08-28T18:53:34.998Z,26.73
2022-08-28T18:56:39.960Z,26.71
2022-08-28T18:59:44.260Z,26.74
2022-08-28T19:02:47.811Z,26.76
2022-08-28T19:05:51.202Z,26.77
2022-08-28T19:08:54.336Z,26.77
2022-08-28T19:11:58.887Z,26.77
2022-08-28T19:15:02.100Z,26.81
2022-08-28T19:18:05.801Z,26.82
2022-08-28T19:21:16.147Z,26.81
2022-08-28T19:24:22.393Z,26.82
2022-08-28T19:27:26.922Z,26.79
2022-08-28T19:30:33.223Z,26.62
2022-08-28T19:33:36.526Z,26.61
2022-08-28T19:36:40.295Z,26.58
2022-08-28T19:39:47.839Z,26.55
2022-08-28T19:43:01.182Z,26.53
2022-08-28T19:46:09.805Z,26.51
2022-08-28T19:49:17.600Z,26.50
2022-08-28T19:52:20.803Z,26.49
2022-08-28T19:55:26.233Z,26.46
2022-08-28T19:58:30.703Z,26.46
2022-08-28T20:01:37.810Z,26.44
2022-08-28T20:04:40.978Z,26.40
2022-08-28T20:07:44.726Z,26.40
2022-08-28T20:10:48.044Z,26.40
2022-08-28T20:13:53.542Z,26.41
2022-08-28T20:16:56.687Z,26.40
2022-08-28T20:20:03.021Z,26.39
2022-08-28T20:23:07.525Z,26.38
2022-08-28T20:26:11.703Z,26.37
2022-08-28T20:29:17.242Z,26.37
2022-08-28T20:32:20.388Z,26.36
2022-08-28T20:35:24.608Z,26.34
2022-08-28T20:38:32.404Z,26.33
2022-08-28T20:41:36.892Z,26.33
2022-08-28T20:44:41.479Z,26.32
2022-08-28T20:47:44.920Z,26.30
2022-08-28T20:50:47.965Z,26.31
2022-08-28T20:53:53.970Z,26.30
2022-08-28T20:56:58.473Z,26.29
2022-08-28T21:00:05.758Z,26.31
2022-08-28T21:03:12.146Z,26.31
2022-08-28T21:06:15.223Z,26.26
2022-08-28T21:09:19.662Z,26.24
2022-08-28T21:12:24.802Z,26.25
2022-08-28T21:15:29.665Z,26.23
2022-08-28T21:18:32.754Z,26.26
2022-08-28T21:21:38.251Z,26.22
2022-08-28T21:24:41.625Z,26.23
2022-08-28T21:27:45.944Z,26.21
2022-08-28T21:30:50.461Z,26.20
2022-08-28T21:33:53.551Z,26.20
2022-08-28T21:36:56.640Z,26.20
2022-08-28T21:40:00.859Z,26.17
2022-08-28T21:43:04.527Z,26.17
2022-08-28T21:46:10.295Z,26.14
2022-08-28T21:49:13.587Z,26.13
2022-08-28T21:52:16.645Z,26.13
2022-08-28T21:55:19.742Z,26.16
2022-08-28T21:58:24.119Z,26.15
2022-08-28T22:01:28.729Z,26.14
2022-08-28T22:04:31.854Z,26.14
2022-08-28T22:07:34.915Z,26.06
2022-08-28T22:10:40.485Z,26.07
2022-08-28T22:13:43.846Z,26.04
2022-08-28T22:16:48.435Z,26.01
2022-08-28T22:19:51.555Z,25.98
2022-08-28T22:23:11.851Z,25.95
2022-08-28T22:26:17.445Z,25.86
2022-08-28T22:29:20.469Z,25.92
2022-08-28T22:32:26.885Z,25.94
2022-08-28T22:35:30.551Z,25.79
2022-08-28T22:38:33.686Z,25.71
2022-08-28T22:41:37.642Z,25.70
2022-08-28T22:44:41.342Z,25.68
2022-08-28T22:47:45.941Z,25.58
2022-08-28T22:50:49.871Z,25.64
2022-08-28T22:53:53.054Z,25.63
2022-08-28T22:56:56.225Z,25.66
2022-08-28T23:00:02.901Z,25.69
2022-08-28T23:03:07.905Z,25.76
2022-08-28T23:06:11.082Z,25.79
2022-08-28T23:09:14.194Z,25.82
2022-08-28T23:12:18.253Z,25.81
2022-08-28T23:15:22.983Z,25.76
2022-08-28T23:18:27.727Z,25.77
2022-08-28T23:21:30.871Z,25.77
2022-08-28T23:24:33.959Z,25.79
2022-08-28T23:27:37.124Z,25.76
2022-08-28T23:30:48.361Z,25.67
2022-08-28T23:33:54.299Z,25.61
2022-08-28T23:36:58.461Z,25.56
2022-08-28T23:40:01.800Z,25.62
2022-08-28T23:43:05.160Z,25.72
2022-08-28T23:46:08.325Z,25.71
2022-08-28T23:49:13.561Z,25.71
2022-08-28T23:52:19.849Z,25.80
2022-08-28T23:55:27.051Z,25.86
2022-08-28T23:58:32.289Z,25.86
